createdAt,value
2022-08-29T00:01:42.627Z,100055.41
2022-08-29T00:04:33.009Z,100052.44
2022-08-29T00:07:21.724Z,100055.44
2022-08-29T00:10:10.901Z,100046.19
2022-08-29T00:12:59.913Z,100048.06
2022-08-29T00:15:48.433Z,100041.63
2022-08-29T00:18:37.262Z,100050.19
2022-08-29T00:21:27.236Z,100055.69
2022-08-29T00:24:16.067Z,100050.44
2022-08-29T00:27:04.679Z,100066.88
2022-08-29T00:29:53.161Z,100058.06
2022-08-29T00:32:41.849Z,100058.06
2022-08-29T00:35:33.376Z,100064.16
2022-08-29T00:38:27.839Z,100057.13
2022-08-29T00:41:16.943Z,100062.59
2022-08-29T00:44:05.781Z,100062.84
2022-08-29T00:46:56.167Z,100052.63
2022-08-29T00:49:46.421Z,100065.56
2022-08-29T00:52:37.447Z,100075.47
2022-08-29T00:55:31.036Z,100071.44
2022-08-29T00:58:24.133Z,100077.88
2022-08-29T01:01:13.153Z,100072.16
2022-08-29T01:04:01.741Z,100068.13
2022-08-29T01:06:50.333Z,100073.72
2022-08-29T01:09:39.770Z,100068.94
2022-08-29T01:12:28.639Z,100076.47
2022-08-29T01:15:17.107Z,100074.19
2022-08-29T01:18:05.908Z,100077.28
2022-08-29T01:21:02.820Z,100087.53
2022-08-29T01:23:55.880Z,100094.06
2022-08-29T01:26:46.601Z,100084.53
2022-08-29T01:29:36.097Z,100090.22
2022-08-29T01:32:25.319Z,100086.16
2022-08-29T01:35:14.005Z,100088.16
2022-08-29T01:38:02.495Z,100096.50
2022-08-29T01:40:50.956Z,100096.59
2022-08-29T01:43:42.723Z,100100.38
2022-08-29T01:46:33.338Z,100092.06
2022-08-29T01:49:22.266Z,100102.97
2022-08-29T01:52:10.858Z,100102.41
2022-08-29T01:54:59.602Z,100109.53
2022-08-29T01:57:48.152Z,100100.94
2022-08-29T02:00:38.478Z,100103.19
2022-08-29T02:03:27.190Z,100111.25
2022-08-29T02:06:15.799Z,100108.13
2022-08-29T02:09:05.287Z,100111.91
2022-08-29T02:11:54.641Z,100111.53
2022-08-29T02:14:43.202Z,100118.06
2022-08-29T02:17:33.049Z,100120.34
2022-08-29T02:20:21.654Z,100124.38
2022-08-29T02:23:27.163Z,100114.34
2022-08-29T02:26:18.561Z,100127.13
2022-08-29T02:29:07.017Z,100124.25
2022-08-29T02:31:55.819Z,100129.91
2022-08-29T02:34:48.393Z,100126.97
2022-08-29T02:37:37.282Z,100128.47
2022-08-29T02:40:31.658Z,100129.94
2022-08-29T02:43:20.669Z,100127.97
2022-08-29T02:46:09.647Z,100127.56
2022-08-29T02:49:01.011Z,100124.31
2022-08-29T02:51:51.248Z,100124.50
2022-08-29T02:54:39.702Z,100125.69
2022-08-29T02:57:28.192Z,100125.88
2022-08-29T03:00:19.651Z,100124.66
2022-08-29T03:03:08.086Z,100131.00
2022-08-29T03:05:57.296Z,100130.59
2022-08-29T03:08:47.211Z,100128.31
2022-08-29T03:11:35.716Z,100134.66
2022-08-29T03:14:24.223Z,100137.66
2022-08-29T03:17:12.680Z,100131.75
2022-08-29T03:20:01.133Z,100131.03
2022-08-29T03:22:49.945Z,100127.03
2022-08-29T03:25:39.884Z,100129.66
2022-08-29T03:28:28.409Z,100128.19
2022-08-29T03:31:17.174Z,100124.97
2022-08-29T03:34:05.899Z,100109.28
2022-08-29T03:36:54.436Z,100123.66
2022-08-29T03:39:42.927Z,100129.19
2022-08-29T03:42:33.130Z,100133.81
2022-08-29T03:45:21.807Z,100134.94
2022-08-29T03:48:10.218Z,100131.59
2022-08-29T03:50:58.662Z,100137.00
2022-08-29T03:53:47.148Z,100125.84
2022-08-29T03:56:36.180Z,100124.44
2022-08-29T03:59:26.585Z,100122.78
2022-08-29T04:02:15.627Z,100123.69
2022-08-29T04:05:11.071Z,100126.22
2022-08-29T04:08:00.227Z,100132.16
2022-08-29T04:10:49.196Z,100130.31
2022-08-29T04:13:37.714Z,100119.34
2022-08-29T04:16:30.971Z,100114.22
2022-08-29T04:19:19.863Z,100113.41
2022-08-29T04:22:09.168Z,100120.34
2022-08-29T04:24:57.665Z,100121.09
2022-08-29T04:27:46.177Z,100121.75
2022-08-29T04:30:35.043Z,100125.13
2022-08-29T04:33:26.344Z,100120.06
2022-08-29T04:36:15.126Z,100129.66
2022-08-29T04:39:03.784Z,100130.69
2022-08-29T04:41:52.602Z,100130.69
2022-08-29T04:44:41.145Z,100139.47
2022-08-29T04:47:29.623Z,100133.59
2022-08-29T04:50:21.925Z,100131.22
2022-08-29T04:53:10.414Z,100131.28
2022-08-29T04:55:59.007Z,100137.41
2022-08-29T04:58:47.599Z,100139.19
2022-08-29T05:01:36.812Z,100130.03
2022-08-29T05:04:25.456Z,100143.59
2022-08-29T05:07:15.247Z,100146.09
2022-08-29T05:10:07.519Z,100144.22
2022-08-29T05:12:56.000Z,100146.84
2022-08-29T05:15:45.119Z,100151.41
2022-08-29T05:18:33.758Z,100154.84
2022-08-29T05:21:27.106Z,100160.69
2022-08-29T05:24:17.011Z,100158.84
2022-08-29T05:27:09.251Z,100159.66
2022-08-29T05:29:58.456Z,100156.97
2022-08-29T05:32:47.160Z,100154.53
2022-08-29T05:35:35.744Z,100156.09
2022-08-29T05:38:24.232Z,100166.97
2022-08-29T05:41:14.136Z,100170.78
2022-08-29T05:44:02.865Z,100170.38
2022-08-29T05:46:51.426Z,100164.94
2022-08-29T05:49:40.677Z,100168.56
2022-08-29T05:52:29.462Z,100170.88
2022-08-29T05:55:18.020Z,100164.50
2022-08-29T05:58:07.950Z,100165.75
2022-08-29T06:00:56.561Z,100153.72
2022-08-29T06:03:46.130Z,100148.16
2022-08-29T06:06:34.695Z,100154.41
2022-08-29T06:09:23.174Z,100143.81
2022-08-29T06:12:12.896Z,100136.56
2022-08-29T06:15:02.858Z,100135.91
2022-08-29T06:17:51.550Z,100148.88
2022-08-29T06:20:40.248Z,100139.94
2022-08-29T06:23:28.743Z,100138.13
2022-08-29T06:26:19.620Z,100150.25
2022-08-29T06:29:10.152Z,100154.09
2022-08-29T06:32:00.063Z,100155.31
2022-08-29T06:34:48.592Z,100154.09
2022-08-29T06:37:37.058Z,100144.63
2022-08-29T06:40:25.579Z,100153.50
2022-08-29T06:43:14.117Z,100155.00
2022-08-29T06:46:02.710Z,100143.22
2022-08-29T06:48:52.607Z,100150.81
2022-08-29T06:51:43.266Z,100153.81
2022-08-29T06:54:31.923Z,100146.06
2022-08-29T06:57:20.662Z,100161.19
2022-08-29T07:00:21.755Z,100151.09
2022-08-29T07:03:11.467Z,100154.88
2022-08-29T07:06:01.402Z,100157.06
2022-08-29T07:08:55.780Z,100155.97
2022-08-29T07:11:45.309Z,100164.03
2022-08-29T07:14:33.890Z,100149.66
2022-08-29T07:17:25.986Z,100167.03
2022-08-29T07:20:14.987Z,100162.53
2022-08-29T07:23:04.853Z,100164.09
2022-08-29T07:25:53.648Z,100168.13
2022-08-29T07:28:47.122Z,100173.63
2022-08-29T07:31:35.860Z,100174.28
2022-08-29T07:34:24.590Z,100174.97
2022-08-29T07:37:13.167Z,100171.56
2022-08-29T07:40:03.530Z,100173.19
2022-08-29T07:42:52.063Z,100172.72
2022-08-29T07:45:41.519Z,100168.38
2022-08-29T07:48:30.012Z,100173.16
2022-08-29T07:51:21.711Z,100178.69
2022-08-29T07:54:11.128Z,100188.00
2022-08-29T07:57:01.039Z,100193.00
2022-08-29T07:59:49.575Z,100189.22
2022-08-29T08:02:38.132Z,100184.00
2022-08-29T08:05:26.948Z,100189.66
2022-08-29T08:08:15.768Z,100189.31
2022-08-29T08:11:05.234Z,100185.66
2022-08-29T08:13:55.495Z,100185.34
2022-08-29T08:16:44.880Z,100182.09
2022-08-29T08:19:33.531Z,100194.28
2022-08-29T08:22:21.987Z,100193.41
2022-08-29T08:25:10.999Z,100200.97
2022-08-29T08:27:59.588Z,100199.63
2022-08-29T08:30:49.506Z,100190.81
2022-08-29T08:33:39.370Z,100190.28
2022-08-29T08:36:29.783Z,100197.22
2022-08-29T08:39:18.365Z,100200.09
2022-08-29T08:42:13.563Z,100197.41
2022-08-29T08:45:08.279Z,100207.56
2022-08-29T08:48:03.508Z,100190.59
2022-08-29T08:50:56.787Z,100190.81
2022-08-29T08:53:48.272Z,100193.19
2022-08-29T08:56:39.600Z,100190.41
2022-08-29T08:59:31.539Z,100190.34
2022-08-29T09:02:36.477Z,100187.44
2022-08-29T09:05:35.923Z,100183.88
2022-08-29T09:08:29.819Z,100183.94
2022-08-29T09:11:23.376Z,100182.38
2022-08-29T09:14:23.116Z,100185.66
2022-08-29T09:17:15.186Z,100191.72
2022-08-29T09:20:05.369Z,100189.56
2022-08-29T09:23:00.739Z,100189.03
2022-08-29T09:25:49.379Z,100198.22
2022-08-29T09:28:37.867Z,100195.63
2022-08-29T09:31:27.897Z,100201.59
2022-08-29T09:34:16.332Z,100204.59
2022-08-29T09:37:05.389Z,100202.78
2022-08-29T09:40:00.091Z,100195.66
2022-08-29T09:42:53.332Z,100193.28
2022-08-29T09:45:41.814Z,100203.66
2022-08-29T09:48:35.329Z,100191.09
2022-08-29T09:51:28.923Z,100190.03
2022-08-29T09:54:24.629Z,100192.44
2022-08-29T09:57:23.487Z,100196.16
2022-08-29T10:00:14.654Z,100195.69
2022-08-29T10:03:05.243Z,100196.50
2022-08-29T10:06:07.553Z,100189.22
2022-08-29T10:09:03.485Z,100171.41
2022-08-29T10:11:56.629Z,100179.72
2022-08-29T10:14:50.443Z,100174.09
2022-08-29T10:18:00.079Z,100182.38
2022-08-29T10:21:00.206Z,100183.50
2022-08-29T10:24:03.561Z,100170.38
2022-08-29T10:26:57.343Z,100180.47
2022-08-29T10:30:03.000Z,100168.50
2022-08-29T10:33:16.038Z,100167.22
2022-08-29T10:36:09.371Z,100159.13
2022-08-29T10:39:01.653Z,100165.06
2022-08-29T10:41:56.517Z,100157.44
2022-08-29T10:44:56.281Z,100160.88
2022-08-29T10:47:52.152Z,100150.44
2022-08-29T10:50:45.284Z,100149.09
2022-08-29T10:53:37.542Z,100147.41
2022-08-29T10:56:29.819Z,100152.25
2022-08-29T10:59:27.526Z,100153.53
2022-08-29T11:02:23.016Z,100142.91
2022-08-29T11:05:15.954Z,100147.78
2022-08-29T11:08:16.191Z,100140.22
2022-08-29T11:11:04.948Z,100127.44
2022-08-29T11:13:56.938Z,100139.63
2022-08-29T11:16:47.635Z,100132.38
2022-08-29T11:19:47.182Z,100124.38
2022-08-29T11:22:38.682Z,100131.94
2022-08-29T11:25:27.623Z,100118.31
2022-08-29T11:28:22.012Z,100120.25
2022-08-29T11:31:15.969Z,100112.69
2022-08-29T11:34:14.855Z,100107.78
2022-08-29T11:37:36.747Z,100113.47
2022-08-29T11:41:26.293Z,100100.53
2022-08-29T11:43:54.209Z,100103.13
2022-08-29T11:46:44.494Z,100106.09
2022-08-29T11:49:42.029Z,100088.84
2022-08-29T11:52:31.933Z,100085.22
2022-08-29T11:55:35.720Z,100082.94
2022-08-29T11:58:46.606Z,100084.78
2022-08-29T12:02:00.575Z,100097.34
2022-08-29T12:04:54.942Z,100084.75
2022-08-29T12:07:48.065Z,100078.44
2022-08-29T12:10:52.494Z,100072.69
2022-08-29T12:14:04.812Z,100072.53
2022-08-29T12:16:53.972Z,100081.97
2022-08-29T12:19:54.125Z,100072.19
2022-08-29T12:22:53.290Z,100072.09
2022-08-29T12:25:45.823Z,100066.78
2022-08-29T12:28:58.081Z,100070.41
2022-08-29T12:32:22.947Z,100068.34
2022-08-29T12:36:03.248Z,100066.34
2022-08-29T12:39:02.180Z,100060.25
2022-08-29T12:42:11.089Z,100056.53
2022-08-29T12:45:01.992Z,100060.06
2022-08-29T12:47:53.602Z,100055.09
2022-08-29T12:50:45.296Z,100055.53
2022-08-29T12:53:35.088Z,100040.09
2022-08-29T12:56:25.762Z,100052.44
2022-08-29T12:59:18.568Z,100046.47
2022-08-29T13:02:07.278Z,100036.81
2022-08-29T13:04:56.416Z,100031.03
2022-08-29T13:07:54.980Z,100030.69
2022-08-29T13:10:53.500Z,100027.75
2022-08-29T13:13:43.564Z,100033.91
2022-08-29T13:16:32.542Z,100022.03
2022-08-29T13:19:21.584Z,100021.81
2022-08-29T13:22:13.569Z,100024.72
2022-08-29T13:25:05.809Z,100022.03
2022-08-29T13:28:09.861Z,100024.47
2022-08-29T13:31:34.465Z,100011.31
2022-08-29T13:34:23.326Z,100011.88
2022-08-29T13:37:29.378Z,100009.59
2022-08-29T13:40:33.880Z,100008.31
2022-08-29T13:43:36.930Z,100000.44
2022-08-29T13:46:28.057Z,100005.47
2022-08-29T13:49:22.488Z,99990.72
2022-08-29T13:52:11.557Z,99993.84
2022-08-29T13:55:00.043Z,99992.34
2022-08-29T13:57:50.191Z,99987.00
2022-08-29T14:00:38.754Z,100000.91
2022-08-29T14:03:28.688Z,100003.81
2022-08-29T14:06:18.682Z,99993.78
2022-08-29T14:09:07.403Z,99987.66
2022-08-29T14:11:55.849Z,99983.34
2022-08-29T14:14:44.998Z,99976.94
2022-08-29T14:17:33.581Z,99983.75
2022-08-29T14:20:22.032Z,99976.78
2022-08-29T14:23:11.831Z,99974.28
2022-08-29T14:26:00.359Z,99980.88
2022-08-29T14:28:48.948Z,99962.16
2022-08-29T14:31:37.984Z,99971.84
2022-08-29T14:34:30.847Z,99967.69
2022-08-29T14:37:21.232Z,99969.78
2022-08-29T14:40:11.564Z,99973.88
2022-08-29T14:43:00.209Z,99961.97
2022-08-29T14:45:48.753Z,99964.81
2022-08-29T14:48:37.246Z,99973.03
2022-08-29T14:51:25.750Z,99954.75
2022-08-29T14:54:14.850Z,99962.78
2022-08-29T14:57:04.813Z,99962.16
2022-08-29T14:59:53.435Z,99959.88
2022-08-29T15:02:41.964Z,99952.28
2022-08-29T15:05:30.589Z,99936.25
2022-08-29T15:08:19.730Z,99940.75
2022-08-29T15:11:09.161Z,99953.50
2022-08-29T15:14:04.376Z,99958.88
2022-08-29T15:16:53.535Z,99956.19
2022-08-29T15:20:31.661Z,99940.13
2022-08-29T15:22:51.980Z,99941.56
2022-08-29T15:25:45.136Z,99938.88
2022-08-29T15:28:40.550Z,99940.47
2022-08-29T15:31:30.950Z,99919.09
2022-08-29T15:34:22.040Z,99940.09
2022-08-29T15:37:11.652Z,99932.09
2022-08-29T15:40:00.277Z,99928.59
2022-08-29T15:42:48.890Z,99936.00
2022-08-29T15:48:28.356Z,99927.97
2022-08-29T15:51:16.821Z,99924.44
2022-08-29T15:54:05.587Z,99927.09
2022-08-29T15:56:54.204Z,99927.06
2022-08-29T15:59:57.608Z,99930.13
2022-08-29T16:02:47.094Z,99930.03
2022-08-29T16:05:38.210Z,99936.94
2022-08-29T16:08:29.853Z,99926.59
2022-08-29T16:11:18.508Z,99930.69
2022-08-29T16:14:40.912Z,99930.47
2022-08-29T16:17:15.577Z,99930.34
2022-08-29T16:20:05.627Z,99928.88
2022-08-29T16:22:56.158Z,99931.03
2022-08-29T16:25:44.825Z,99922.19
2022-08-29T16:28:33.347Z,99930.47
2022-08-29T16:31:21.862Z,99938.16
2022-08-29T16:34:10.347Z,99931.72
2022-08-29T16:36:59.362Z,99926.66
2022-08-29T16:39:49.124Z,99931.75
2022-08-29T16:42:39.160Z,99916.28
2022-08-29T16:45:27.617Z,99918.22
2022-08-29T16:48:17.674Z,99918.72
2022-08-29T16:51:08.160Z,99909.84
2022-08-29T16:53:57.835Z,99919.59
2022-08-29T16:56:47.732Z,99919.88
2022-08-29T16:59:37.163Z,99921.00
2022-08-29T17:02:25.885Z,99923.81
2022-08-29T17:05:14.666Z,99925.78
2022-08-29T17:08:02.470Z,99921.56
2022-08-29T17:10:49.869Z,99922.69
2022-08-29T17:13:40.364Z,99913.63
2022-08-29T17:16:28.967Z,99918.47
2022-08-29T17:19:17.550Z,99912.25
2022-08-29T17:22:06.160Z,99921.34
2022-08-29T17:24:54.763Z,99913.97
2022-08-29T17:28:00.969Z,99919.09
2022-08-29T17:30:53.228Z,99920.72
2022-08-29T17:33:41.876Z,99929.78
2022-08-29T17:36:30.349Z,99926.84
2022-08-29T17:39:20.925Z,99941.00
2022-08-29T17:42:10.011Z,99937.94
2022-08-29T17:44:58.489Z,99937.72
2022-08-29T17:47:48.262Z,99935.00
2022-08-29T17:50:37.781Z,99932.63
2022-08-29T17:53:26.221Z,99940.13
2022-08-29T17:56:16.643Z,99938.88
2022-08-29T17:59:05.828Z,99950.72
2022-08-29T18:01:55.288Z,99949.44
2022-08-29T18:04:45.483Z,99948.19
2022-08-29T18:07:34.021Z,99958.09
2022-08-29T18:10:23.041Z,99956.81
2022-08-29T18:13:11.549Z,99955.53
2022-08-29T18:16:00.075Z,99955.72
2022-08-29T18:18:51.585Z,99955.75
2022-08-29T18:21:43.239Z,99965.47
2022-08-29T18:24:31.921Z,99975.94
2022-08-29T18:27:20.395Z,99975.75
2022-08-29T18:30:10.312Z,99977.41
2022-08-29T18:32:58.788Z,99975.03
2022-08-29T18:35:47.559Z,99977.34
2022-08-29T18:38:37.784Z,99980.78
2022-08-29T18:41:26.701Z,99976.94
2022-08-29T18:44:15.221Z,99981.53
2022-08-29T18:47:03.720Z,99993.19
2022-08-29T18:50:09.883Z,99988.19
2022-08-29T18:52:58.331Z,99990.28
2022-08-29T18:55:50.478Z,99997.66
2022-08-29T18:58:41.211Z,99997.09
2022-08-29T19:01:30.448Z,100005.94
2022-08-29T19:04:22.283Z,100006.53
2022-08-29T19:07:15.587Z,100008.31
2022-08-29T19:10:10.057Z,100011.69
2022-08-29T19:13:00.199Z,100017.59
2022-08-29T19:15:48.836Z,100012.13
2022-08-29T19:18:37.637Z,100017.16
2022-08-29T19:21:26.201Z,100024.19
2022-08-29T19:24:14.842Z,100018.69
2022-08-29T19:27:03.768Z,100017.63
2022-08-29T19:29:54.274Z,100022.94
2022-08-29T19:32:48.643Z,100027.16
2022-08-29T19:35:37.922Z,100016.25
2022-08-29T19:38:27.520Z,100015.16
2022-08-29T19:41:17.535Z,100017.41
2022-08-29T19:44:06.030Z,100012.91
2022-08-29T19:46:55.806Z,100010.84
2022-08-29T19:49:45.309Z,100023.94
2022-08-29T19:52:34.055Z,100023.19
2022-08-29T19:55:23.396Z,100027.50
2022-08-29T19:58:12.736Z,100025.44
2022-08-29T20:01:02.644Z,100021.56
2022-08-29T20:03:53.001Z,100016.22
2022-08-29T20:06:41.523Z,100018.47
2022-08-29T20:09:32.543Z,100024.13
2022-08-29T20:12:22.226Z,100028.75
2022-08-29T20:15:12.665Z,100029.84
2022-08-29T20:18:02.357Z,100030.00
2022-08-29T20:20:55.389Z,100027.63
2022-08-29T20:23:49.674Z,100027.25
2022-08-29T20:26:39.580Z,100041.41
2022-08-29T20:29:28.133Z,100036.25
2022-08-29T20:32:18.678Z,100033.91
2022-08-29T20:35:07.702Z,100039.31
2022-08-29T20:37:56.496Z,100036.81
2022-08-29T20:40:46.848Z,100036.81
2022-08-29T20:43:37.793Z,100048.19
2022-08-29T20:46:28.433Z,100032.69
2022-08-29T20:49:19.543Z,100034.75
2022-08-29T20:52:08.116Z,100036.69
2022-08-29T20:54:58.049Z,100036.03
2022-08-29T20:57:46.535Z,100038.81
2022-08-29T21:00:35.110Z,100041.84
2022-08-29T21:03:41.114Z,100046.28
2022-08-29T21:06:31.237Z,100044.03
2022-08-29T21:09:19.712Z,100046.84
2022-08-29T21:12:09.893Z,100045.56
2022-08-29T21:14:58.350Z,100043.09
2022-08-29T21:17:46.925Z,100049.47
2022-08-29T21:20:37.369Z,100047.69
2022-08-29T21:23:34.231Z,100054.06
2022-08-29T21:26:22.736Z,100058.34
2022-08-29T21:29:12.531Z,100058.34
2022-08-29T21:32:01.089Z,100052.25
2022-08-29T21:34:49.707Z,100052.38
2022-08-29T21:37:39.131Z,100050.56
2022-08-29T21:40:27.691Z,100052.50
2022-08-29T21:43:16.696Z,100056.00
2022-08-29T21:46:16.632Z,100050.72
2022-08-29T21:49:07.007Z,100041.84
2022-08-29T21:51:55.960Z,100044.63
2022-08-29T21:54:44.441Z,100039.53
2022-08-29T21:57:50.508Z,100038.00
2022-08-29T22:00:42.085Z,100050.47
2022-08-29T22:03:33.209Z,100047.25
2022-08-29T22:06:21.755Z,100049.34
2022-08-29T22:09:11.495Z,100038.28
2022-08-29T22:12:00.368Z,100045.47
2022-08-29T22:15:06.420Z,100051.28
2022-08-29T22:17:55.060Z,100047.44
2022-08-29T22:20:46.541Z,100047.97
2022-08-29T22:23:35.225Z,100053.66
2022-08-29T22:26:23.702Z,100046.16
2022-08-29T22:29:13.583Z,100053.47
2022-08-29T22:32:02.055Z,100052.22
2022-08-29T22:34:50.539Z,100045.00
2022-08-29T22:37:40.399Z,100056.75
2022-08-29T22:40:29.837Z,100059.66
2022-08-29T22:43:18.437Z,100065.19
2022-08-29T22:46:12.613Z,100064.50
2022-08-29T22:49:01.211Z,100064.06
2022-08-29T22:51:49.700Z,100060.03
2022-08-29T22:54:39.725Z,100056.97
2022-08-29T22:57:28.327Z,100062.09
2022-08-29T23:00:19.256Z,100055.00
2022-08-29T23:03:07.928Z,100064.38
2022-08-29T23:05:56.493Z,100055.34
2022-08-29T23:08:45.039Z,100051.31
2022-08-29T23:11:36.044Z,100056.84
2022-08-29T23:14:24.543Z,100050.19
2022-08-29T23:17:16.927Z,100049.38
2022-08-29T23:20:06.050Z,100051.28
2022-08-29T23:22:54.491Z,100050.69
2022-08-29T23:25:43.154Z,100052.63
2022-08-29T23:28:33.032Z,100051.94
2022-08-29T23:31:22.278Z,100051.22
2022-08-29T23:34:10.759Z,100047.22
2022-08-29T23:36:59.472Z,100045.53
2022-08-29T23:39:48.023Z,100050.78
2022-08-29T23:42:37.012Z,100053.69
2022-08-29T23:45:27.006Z,100045.13
2022-08-29T23:48:15.622Z,100053.69
2022-08-29T23:51:07.286Z,100050.09
2022-08-29T23:53:55.766Z,100048.16
2022-08-29T23:56:44.294Z,100047.78
2022-08-29T23:59:51.473Z,100042.41
